createdAt,value
2022-11-07T00:02:14.085Z,38.10
2022-11-07T00:04:42.465Z,34.40
2022-11-07T00:07:11.733Z,36.60
2022-11-07T00:09:41.151Z,35.40
2022-11-07T00:12:10.176Z,35.60
2022-11-07T00:14:38.643Z,36.40
2022-11-07T00:17:08.070Z,36.10
2022-11-07T00:19:36.310Z,34.60
2022-11-07T00:22:04.550Z,39.70
2022-11-07T00:24:32.846Z,37.10
2022-11-07T00:27:01.254Z,42.50
2022-11-07T00:29:29.581Z,36.30
2022-11-07T00:31:59.808Z,37.10
2022-11-07T00:34:28.053Z,40.80
2022-11-07T00:36:56.340Z,40.40
2022-11-07T00:39:24.647Z,35.40
2022-11-07T00:41:52.941Z,33.90
2022-11-07T00:44:21.401Z,28.30
2022-11-07T00:46:49.857Z,32.60
2022-11-07T00:49:18.106Z,29.70
2022-11-07T00:51:46.465Z,27.80
2022-11-07T00:54:14.738Z,27.30
2022-11-07T00:56:42.990Z,28.90
2022-11-07T00:59:11.302Z,32.20
2022-11-07T01:01:39.875Z,31.60
2022-11-07T01:04:31.512Z,30.30
2022-11-07T01:06:59.970Z,30.70
2022-11-07T01:09:28.325Z,31.70
2022-11-07T01:11:56.637Z,30.70
2022-11-07T01:14:25.193Z,29.40
2022-11-07T01:16:53.544Z,31.60
2022-11-07T01:19:22.097Z,27.60
2022-11-07T01:21:51.333Z,27.50
2022-11-07T01:24:19.620Z,28.20
2022-11-07T01:26:48.287Z,27.10
2022-11-07T01:29:18.301Z,28.60
2022-11-07T01:31:47.651Z,28.90
2022-11-07T01:34:17.934Z,28.10
2022-11-07T01:36:46.427Z,30.40
2022-11-07T01:39:14.826Z,32.20
2022-11-07T01:41:43.172Z,27.70
2022-11-07T01:44:11.429Z,34.40
2022-11-07T01:46:43.004Z,32.40
2022-11-07T01:49:13.940Z,30.60
2022-11-07T01:52:33.899Z,28.80
2022-11-07T01:55:22.172Z,29.90
2022-11-07T01:57:58.650Z,27.20
2022-11-07T02:00:41.904Z,28.00
2022-11-07T02:03:15.601Z,33.20
2022-11-07T02:06:01.665Z,30.40
2022-11-07T02:11:02.910Z,28.50
2022-11-07T02:13:32.942Z,28.30
2022-11-07T02:16:04.381Z,30.40
2022-11-07T02:18:37.081Z,29.40
2022-11-07T02:21:18.251Z,31.50
2022-11-07T02:23:58.915Z,37.20
2022-11-07T02:26:28.970Z,27.80
2022-11-07T02:28:58.599Z,31.00
2022-11-07T02:31:26.850Z,27.30
2022-11-07T02:33:55.188Z,29.70
2022-11-07T02:36:24.628Z,34.90
2022-11-07T02:38:59.000Z,32.00
2022-11-07T02:41:35.068Z,33.20
2022-11-07T02:44:09.992Z,35.30
2022-11-07T02:46:39.792Z,33.90
2022-11-07T02:49:08.664Z,35.70
2022-11-07T02:51:36.932Z,29.20
2022-11-07T02:54:05.416Z,35.10
2022-11-07T02:56:33.636Z,30.80
2022-11-07T02:59:02.590Z,33.00
2022-11-07T03:01:31.047Z,33.70
2022-11-07T03:03:59.594Z,32.20
2022-11-07T03:06:27.893Z,27.60
2022-11-07T03:08:56.229Z,32.70
2022-11-07T03:11:24.554Z,30.50
2022-11-07T03:13:54.723Z,36.20
2022-11-07T03:16:23.036Z,31.10
2022-11-07T03:18:51.316Z,36.00
2022-11-07T03:21:19.665Z,35.40
2022-11-07T03:23:47.956Z,33.80
2022-11-07T03:26:16.208Z,37.60
2022-11-07T03:28:45.752Z,33.40
2022-11-07T03:31:14.056Z,34.30
2022-11-07T03:33:42.366Z,35.80
2022-11-07T03:36:10.651Z,37.30
2022-11-07T03:38:38.978Z,33.80
2022-11-07T03:41:07.282Z,32.00
2022-11-07T03:43:35.609Z,30.00
2022-11-07T03:46:03.932Z,33.50
2022-11-07T03:48:32.175Z,34.90
2022-11-07T03:51:00.465Z,40.00
2022-11-07T03:53:28.878Z,34.70
2022-11-07T03:55:57.645Z,33.30
2022-11-07T03:58:26.572Z,34.60
2022-11-07T04:00:54.857Z,35.90
2022-11-07T04:03:23.162Z,32.40
2022-11-07T04:05:51.593Z,33.50
2022-11-07T04:08:20.436Z,36.10
2022-11-07T04:10:48.768Z,32.80
2022-11-07T04:13:35.677Z,37.80
2022-11-07T04:16:14.953Z,35.30
2022-11-07T04:18:49.264Z,33.40
2022-11-07T04:21:17.618Z,33.20
2022-11-07T04:23:45.892Z,30.30
2022-11-07T04:26:32.716Z,32.90
2022-11-07T04:29:01.075Z,33.10
2022-11-07T04:31:29.840Z,35.90
2022-11-07T04:33:58.169Z,30.60
2022-11-07T04:36:26.578Z,29.10
2022-11-07T04:38:54.862Z,34.70
2022-11-07T04:41:24.791Z,30.70
2022-11-07T04:43:53.137Z,33.30
2022-11-07T04:46:23.383Z,34.80
2022-11-07T04:48:51.651Z,29.20
2022-11-07T04:51:22.834Z,32.00
2022-11-07T04:53:51.145Z,31.80
2022-11-07T04:56:19.464Z,29.80
2022-11-07T04:58:47.809Z,30.70
2022-11-07T05:01:16.076Z,30.50
2022-11-07T05:03:44.589Z,32.40
2022-11-07T05:06:14.889Z,30.40
2022-11-07T05:08:43.175Z,29.20
2022-11-07T05:11:15.058Z,30.70
2022-11-07T05:13:43.359Z,29.50
2022-11-07T05:16:19.910Z,28.60
2022-11-07T05:18:48.191Z,29.80
2022-11-07T05:21:16.564Z,29.90
2022-11-07T05:23:44.799Z,28.50
2022-11-07T05:26:13.082Z,28.00
2022-11-07T05:28:41.447Z,25.40
2022-11-07T05:31:15.599Z,27.60
2022-11-07T05:33:44.497Z,26.10
2022-11-07T05:36:15.668Z,29.20
2022-11-07T05:38:47.041Z,27.50
2022-11-07T05:41:17.310Z,24.00
2022-11-07T05:43:46.717Z,25.20
2022-11-07T05:46:15.443Z,24.50
2022-11-07T05:48:43.736Z,25.20
2022-11-07T05:51:12.070Z,27.10
2022-11-07T05:53:40.446Z,25.00
2022-11-07T05:56:08.767Z,28.30
2022-11-07T05:58:37.314Z,25.80
2022-11-07T06:01:06.626Z,24.70
2022-11-07T06:03:34.864Z,26.50
2022-11-07T06:06:03.226Z,27.60
2022-11-07T06:08:31.628Z,23.30
2022-11-07T06:11:06.368Z,26.90
2022-11-07T06:13:34.832Z,28.00
2022-11-07T06:16:03.326Z,22.10
2022-11-07T06:18:31.845Z,25.30
2022-11-07T06:21:02.041Z,26.40
2022-11-07T06:23:30.272Z,40.10
2022-11-07T06:25:58.664Z,30.10
2022-11-07T06:28:26.979Z,27.30
2022-11-07T06:30:59.971Z,26.20
2022-11-07T06:33:30.135Z,91.20
2022-11-07T06:36:12.123Z,45.20
2022-11-07T06:38:40.773Z,27.90
2022-11-07T06:41:12.608Z,28.60
2022-11-07T06:43:41.675Z,27.10
2022-11-07T06:46:13.323Z,24.80
2022-11-07T06:48:41.865Z,25.90
2022-11-07T06:51:11.071Z,26.10
2022-11-07T06:53:39.431Z,38.10
2022-11-07T06:56:10.870Z,31.80
2022-11-07T06:58:39.124Z,54.70
2022-11-07T07:01:10.088Z,36.30
2022-11-07T07:03:38.930Z,33.40
2022-11-07T07:06:11.838Z,48.20
2022-11-07T07:08:41.232Z,31.40
2022-11-07T07:11:12.235Z,44.80
2022-11-07T07:13:41.923Z,29.30
2022-11-07T07:16:10.565Z,28.80
2022-11-07T07:18:38.820Z,28.10
2022-11-07T07:21:10.698Z,26.60
2022-11-07T07:23:40.111Z,25.20
2022-11-07T07:26:13.837Z,27.30
2022-11-07T07:28:43.399Z,26.60
2022-11-07T07:31:14.796Z,28.80
2022-11-07T07:33:45.083Z,29.20
2022-11-07T07:36:19.280Z,29.30
2022-11-07T07:38:50.648Z,26.90
2022-11-07T07:41:19.233Z,26.10
2022-11-07T07:43:48.022Z,31.40
2022-11-07T07:46:21.527Z,26.20
2022-11-07T07:48:49.965Z,27.00
2022-11-07T07:51:18.324Z,25.30
2022-11-07T07:53:46.567Z,24.70
2022-11-07T07:56:15.658Z,29.80
2022-11-07T07:58:43.950Z,27.20
2022-11-07T08:01:12.308Z,26.30
2022-11-07T08:04:00.075Z,26.20
2022-11-07T08:06:29.581Z,25.20
2022-11-07T08:08:58.474Z,21.60
2022-11-07T08:11:27.925Z,26.50
2022-11-07T08:14:00.973Z,24.50
2022-11-07T08:16:30.151Z,24.00
2022-11-07T08:18:58.489Z,25.50
2022-11-07T08:21:26.778Z,20.90
2022-11-07T08:23:56.577Z,24.40
2022-11-07T08:26:25.682Z,25.10
2022-11-07T08:28:55.277Z,20.80
2022-11-07T08:31:23.756Z,23.70
2022-11-07T08:33:52.032Z,26.50
2022-11-07T08:36:20.350Z,31.90
2022-11-07T08:38:48.673Z,27.00
2022-11-07T08:41:21.763Z,85.40
2022-11-07T08:43:50.715Z,104.30
2022-11-07T08:46:18.988Z,76.70
2022-11-07T08:48:47.271Z,80.50
2022-11-07T08:51:15.653Z,30.20
2022-11-07T08:53:44.025Z,25.80
2022-11-07T08:56:12.463Z,25.30
2022-11-07T08:58:40.816Z,21.30
2022-11-07T09:01:10.221Z,22.50
2022-11-07T09:03:52.974Z,21.50
2022-11-07T09:06:23.615Z,22.90
2022-11-07T09:08:51.775Z,36.50
2022-11-07T09:11:22.121Z,25.10
2022-11-07T09:13:50.575Z,22.20
2022-11-07T09:16:19.667Z,34.40
2022-11-07T09:18:49.724Z,29.60
2022-11-07T09:21:22.364Z,23.70
2022-11-07T09:23:52.480Z,25.70
2022-11-07T09:26:21.368Z,20.90
2022-11-07T09:28:52.948Z,18.40
2022-11-07T09:31:23.619Z,21.10
2022-11-07T09:33:51.876Z,22.40
2022-11-07T09:36:22.360Z,18.40
2022-11-07T09:38:50.972Z,18.30
2022-11-07T09:41:22.322Z,22.40
2022-11-07T09:43:59.641Z,17.70
2022-11-07T09:46:45.758Z,19.30
2022-11-07T09:49:17.323Z,17.40
2022-11-07T09:52:04.596Z,16.90
2022-11-07T09:54:38.941Z,20.10
2022-11-07T09:57:17.276Z,14.30
2022-11-07T09:59:54.079Z,15.60
2022-11-07T10:02:27.699Z,11.20
2022-11-07T10:05:02.566Z,12.80
2022-11-07T10:07:42.439Z,14.60
2022-11-07T10:10:38.638Z,10.00
2022-11-07T10:13:16.332Z,10.20
2022-11-07T10:16:01.474Z,8.50
2022-11-07T10:19:05.410Z,10.50
2022-11-07T10:21:38.377Z,11.10
2022-11-07T10:24:29.980Z,11.00
2022-11-07T10:26:58.740Z,9.50
2022-11-07T10:29:44.100Z,9.50
2022-11-07T10:32:18.426Z,16.50
2022-11-07T10:34:54.705Z,13.30
2022-11-07T10:37:23.790Z,11.00
2022-11-07T10:39:52.155Z,8.10
2022-11-07T10:42:27.373Z,7.50
2022-11-07T10:44:59.150Z,11.10
2022-11-07T10:47:30.737Z,9.60
2022-11-07T10:50:02.609Z,9.90
2022-11-07T10:52:31.170Z,13.30
2022-11-07T10:55:09.096Z,9.50
2022-11-07T10:57:37.442Z,9.40
2022-11-07T11:00:22.654Z,10.90
2022-11-07T11:05:25.420Z,8.80
2022-11-07T11:08:08.215Z,17.40
2022-11-07T11:10:39.569Z,38.30
2022-11-07T11:13:24.834Z,13.70
2022-11-07T11:15:53.277Z,9.70
2022-11-07T11:18:21.710Z,8.50
2022-11-07T11:21:03.293Z,10.60
2022-11-07T11:23:36.805Z,8.00
2022-11-07T11:26:16.573Z,8.70
2022-11-07T11:28:50.445Z,9.40
2022-11-07T11:31:18.764Z,8.10
2022-11-07T11:34:22.006Z,8.30
2022-11-07T11:37:18.925Z,8.70
2022-11-07T11:39:58.891Z,9.90
2022-11-07T11:42:50.728Z,11.60
2022-11-07T11:45:33.537Z,14.00
2022-11-07T11:48:26.869Z,10.00
2022-11-07T11:51:10.333Z,9.40
2022-11-07T11:53:38.650Z,17.10
2022-11-07T11:56:06.919Z,10.50
2022-11-07T11:58:38.239Z,17.90
2022-11-07T12:01:34.934Z,15.60
2022-11-07T12:04:34.734Z,16.60
2022-11-07T12:07:20.801Z,14.80
2022-11-07T12:10:01.057Z,17.40
2022-11-07T12:12:58.696Z,19.30
2022-11-07T12:15:31.305Z,16.90
2022-11-07T12:18:28.626Z,18.10
2022-11-07T12:21:22.157Z,19.70
2022-11-07T12:24:16.834Z,20.00
2022-11-07T12:26:58.029Z,21.50
2022-11-07T12:29:54.854Z,23.20
2022-11-07T12:32:58.708Z,20.40
2022-11-07T12:35:27.027Z,21.10
2022-11-07T12:38:19.149Z,22.40
2022-11-07T12:41:08.888Z,16.80
2022-11-07T12:43:50.161Z,24.40
2022-11-07T12:46:49.306Z,22.00
2022-11-07T12:49:41.483Z,21.30
2022-11-07T12:52:46.113Z,24.10
2022-11-07T12:55:25.516Z,19.70
2022-11-07T12:57:55.899Z,17.40
2022-11-07T13:00:30.313Z,19.60
2022-11-07T13:03:22.365Z,16.60
2022-11-07T13:06:09.283Z,18.50
2022-11-07T13:08:55.291Z,17.70
2022-11-07T13:11:56.506Z,13.80
2022-11-07T13:14:32.539Z,17.30
2022-11-07T13:17:03.670Z,20.70
2022-11-07T13:19:37.985Z,16.70
2022-11-07T13:22:19.402Z,16.60
2022-11-07T13:25:16.949Z,15.80
2022-11-07T13:28:00.632Z,11.20
2022-11-07T13:30:40.323Z,12.30
2022-11-07T13:33:29.503Z,14.20
2022-11-07T13:36:12.010Z,12.60
2022-11-07T13:38:50.368Z,16.50
2022-11-07T13:41:19.879Z,9.60
2022-11-07T13:44:04.849Z,15.20
2022-11-07T13:46:46.012Z,12.90
2022-11-07T13:49:27.293Z,13.10
2022-11-07T13:52:01.909Z,13.00
2022-11-07T13:54:55.335Z,10.80
2022-11-07T13:57:47.635Z,10.80
2022-11-07T14:00:21.312Z,13.20
2022-11-07T14:02:52.932Z,14.40
2022-11-07T14:05:24.080Z,19.50
2022-11-07T14:08:02.673Z,19.10
2022-11-07T14:10:43.111Z,17.90
2022-11-07T14:13:34.703Z,15.10
2022-11-07T14:16:17.645Z,22.30
2022-11-07T14:18:54.760Z,20.50
2022-11-07T14:21:28.424Z,17.90
2022-11-07T14:23:57.319Z,17.20
2022-11-07T14:26:34.307Z,16.10
2022-11-07T14:29:04.075Z,16.60
2022-11-07T14:31:37.827Z,15.60
2022-11-07T14:34:26.596Z,13.80
2022-11-07T14:37:01.526Z,10.40
2022-11-07T14:39:33.159Z,13.00
2022-11-07T14:42:03.485Z,16.50
2022-11-07T14:44:56.334Z,12.40
2022-11-07T14:47:35.280Z,13.20
2022-11-07T14:50:05.573Z,13.40
2022-11-07T14:52:47.723Z,15.30
2022-11-07T14:55:47.393Z,13.90
2022-11-07T14:58:18.495Z,15.70
2022-11-07T15:01:11.447Z,13.20
2022-11-07T15:03:53.432Z,8.80
2022-11-07T15:06:28.516Z,10.40
2022-11-07T15:09:09.065Z,12.00
2022-11-07T15:11:40.477Z,12.20
2022-11-07T15:14:35.341Z,22.80
2022-11-07T15:17:07.919Z,23.10
2022-11-07T15:19:36.419Z,24.50
2022-11-07T15:22:06.593Z,14.40
2022-11-07T15:24:42.102Z,14.60
2022-11-07T15:27:14.107Z,12.00
2022-11-07T15:29:52.439Z,27.90
2022-11-07T15:32:24.600Z,33.90
2022-11-07T15:35:37.692Z,38.90
2022-11-07T15:38:00.207Z,33.10
2022-11-07T15:40:29.984Z,33.10
2022-11-07T15:42:58.961Z,25.80
2022-11-07T15:45:27.339Z,27.00
2022-11-07T15:47:55.718Z,31.00
2022-11-07T15:50:25.668Z,40.10
2022-11-07T15:52:55.059Z,32.80
2022-11-07T15:55:24.081Z,30.40
2022-11-07T15:57:56.156Z,36.20
2022-11-07T16:00:26.461Z,56.10
2022-11-07T16:02:54.923Z,64.90
2022-11-07T16:05:23.289Z,59.10
2022-11-07T16:07:51.805Z,70.30
2022-11-07T16:10:27.062Z,69.10
2022-11-07T16:12:55.345Z,68.00
2022-11-07T16:15:26.365Z,88.80
2022-11-07T16:17:56.623Z,76.70
2022-11-07T16:20:24.932Z,125.30
2022-11-07T16:22:53.230Z,134.70
2022-11-07T16:25:24.554Z,122.10
2022-11-07T16:27:56.425Z,101.70
2022-11-07T16:30:25.299Z,87.30
2022-11-07T16:32:53.597Z,76.60
2022-11-07T16:35:22.298Z,63.60
2022-11-07T16:37:50.748Z,60.00
2022-11-07T16:40:19.944Z,51.20
2022-11-07T16:42:48.299Z,61.60
2022-11-07T16:45:22.477Z,80.90
2022-11-07T16:47:50.799Z,100.20
2022-11-07T16:50:19.141Z,91.50
2022-11-07T16:52:47.433Z,95.40
2022-11-07T16:55:18.425Z,101.00
2022-11-07T16:57:47.775Z,118.90
2022-11-07T17:00:18.776Z,117.60
2022-11-07T17:02:47.355Z,100.80
2022-11-07T17:05:15.954Z,99.70
2022-11-07T17:07:44.827Z,101.80
2022-11-07T17:10:16.997Z,80.40
2022-11-07T17:12:45.425Z,75.80
2022-11-07T17:15:13.803Z,87.40
2022-11-07T17:17:42.365Z,88.00
2022-11-07T17:20:41.092Z,99.50
2022-11-07T17:23:09.909Z,151.00
2022-11-07T17:25:39.167Z,251.70
2022-11-07T17:28:08.067Z,319.90
2022-11-07T17:30:36.465Z,328.10
2022-11-07T17:33:05.167Z,286.80
2022-11-07T17:35:34.162Z,201.30
2022-11-07T17:38:02.914Z,196.10
2022-11-07T17:40:34.966Z,248.70
2022-11-07T17:43:03.246Z,271.20
2022-11-07T17:45:31.572Z,228.00
2022-11-07T17:47:59.866Z,192.40
2022-11-07T17:50:28.356Z,189.70
2022-11-07T17:52:56.828Z,138.10
2022-11-07T17:55:25.703Z,146.80
2022-11-07T17:57:54.625Z,122.60
2022-11-07T18:00:25.053Z,119.90
2022-11-07T18:02:53.817Z,114.30
2022-11-07T18:05:25.575Z,93.40
2022-11-07T18:10:25.442Z,89.00
2022-11-07T18:12:57.101Z,69.00
2022-11-07T18:15:25.729Z,78.80
2022-11-07T18:17:54.052Z,75.90
2022-11-07T18:20:22.341Z,71.90
2022-11-07T18:22:50.707Z,72.00
2022-11-07T18:25:19.059Z,79.50
2022-11-07T18:27:48.912Z,77.50
2022-11-07T18:30:17.957Z,103.10
2022-11-07T18:32:46.194Z,90.20
2022-11-07T18:35:14.598Z,100.60
2022-11-07T18:37:43.081Z,96.90
2022-11-07T18:40:12.190Z,93.50
2022-11-07T18:42:47.769Z,91.10
2022-11-07T18:45:20.378Z,87.40
2022-11-07T18:47:48.719Z,78.70
2022-11-07T18:50:17.065Z,82.90
2022-11-07T18:52:45.993Z,76.10
2022-11-07T18:55:14.485Z,70.70
2022-11-07T18:57:42.869Z,72.90
2022-11-07T19:00:13.662Z,75.50
2022-11-07T19:02:42.387Z,76.20
2022-11-07T19:05:10.694Z,65.70
2022-11-07T19:07:43.112Z,68.20
2022-11-07T19:10:13.441Z,65.70
2022-11-07T19:12:42.430Z,66.60
2022-11-07T19:15:11.236Z,59.30
2022-11-07T19:17:39.843Z,53.30
2022-11-07T19:20:08.764Z,54.10
2022-11-07T19:22:37.128Z,49.80
2022-11-07T19:25:05.733Z,48.60
2022-11-07T19:27:35.036Z,47.70
2022-11-07T19:30:06.731Z,43.00
2022-11-07T19:32:35.110Z,46.80
2022-11-07T19:35:03.551Z,45.80
2022-11-07T19:37:31.815Z,48.00
2022-11-07T19:40:00.174Z,47.70
2022-11-07T19:42:28.907Z,45.50
2022-11-07T19:44:57.329Z,46.80
2022-11-07T19:47:25.621Z,40.30
2022-11-07T19:49:54.087Z,43.60
2022-11-07T19:52:22.376Z,40.70
2022-11-07T19:54:51.683Z,44.60
2022-11-07T19:57:20.108Z,43.20
2022-11-07T19:59:48.371Z,36.10
2022-11-07T20:02:34.557Z,37.90
2022-11-07T20:05:06.146Z,44.70
2022-11-07T20:07:34.743Z,42.50
2022-11-07T20:10:03.158Z,50.30
2022-11-07T20:12:31.406Z,41.70
2022-11-07T20:15:00.683Z,42.10
2022-11-07T20:17:29.022Z,40.10
2022-11-07T20:19:59.983Z,48.00
2022-11-07T20:22:32.359Z,58.20
2022-11-07T20:25:00.684Z,55.30
2022-11-07T20:27:28.967Z,60.00
2022-11-07T20:29:58.610Z,54.60
2022-11-07T20:32:27.881Z,48.50
2022-11-07T20:34:56.212Z,52.60
2022-11-07T20:37:24.642Z,51.20
2022-11-07T20:39:52.935Z,46.50
2022-11-07T20:42:21.343Z,56.00
2022-11-07T20:44:51.414Z,72.00
2022-11-07T20:47:19.708Z,58.80
2022-11-07T20:49:48.696Z,64.90
2022-11-07T20:52:17.073Z,55.90
2022-11-07T20:54:45.369Z,57.20
2022-11-07T20:57:13.614Z,50.20
2022-11-07T20:59:42.425Z,52.80
2022-11-07T21:02:13.115Z,45.20
2022-11-07T21:05:03.267Z,60.40
2022-11-07T21:07:29.738Z,57.80
2022-11-07T21:09:58.104Z,48.20
2022-11-07T21:12:26.407Z,41.60
2022-11-07T21:14:54.764Z,45.30
2022-11-07T21:17:23.076Z,36.30
2022-11-07T21:19:51.383Z,34.00
2022-11-07T21:22:19.643Z,30.40
2022-11-07T21:24:47.939Z,37.50
2022-11-07T21:27:16.177Z,40.50
2022-11-07T21:29:44.503Z,41.20
2022-11-07T21:32:12.851Z,75.20
2022-11-07T21:34:42.952Z,62.90
2022-11-07T21:37:11.225Z,42.50
2022-11-07T21:39:39.565Z,33.20
2022-11-07T21:42:07.823Z,38.50
2022-11-07T21:44:36.191Z,26.70
2022-11-07T21:47:04.564Z,29.70
2022-11-07T21:49:32.877Z,31.40
2022-11-07T21:52:01.158Z,24.50
2022-11-07T21:54:29.665Z,27.40
2022-11-07T21:56:57.934Z,23.90
2022-11-07T21:59:26.325Z,27.20
2022-11-07T22:01:55.588Z,22.90
2022-11-07T22:04:24.290Z,24.40
2022-11-07T22:06:52.794Z,31.10
2022-11-07T22:09:26.117Z,33.30
2022-11-07T22:12:00.424Z,26.00
2022-11-07T22:14:28.736Z,25.70
2022-11-07T22:16:57.190Z,24.10
2022-11-07T22:19:28.146Z,23.00
2022-11-07T22:21:56.475Z,23.40
2022-11-07T22:24:27.232Z,23.00
2022-11-07T22:26:56.208Z,19.40
2022-11-07T22:29:24.486Z,19.60
2022-11-07T22:31:52.836Z,20.40
2022-11-07T22:34:22.286Z,22.70
2022-11-07T22:36:53.300Z,23.50
2022-11-07T22:39:21.690Z,25.50
2022-11-07T22:41:49.982Z,25.80
2022-11-07T22:44:18.353Z,25.00
2022-11-07T22:46:46.796Z,18.90
2022-11-07T22:49:15.117Z,22.00
2022-11-07T22:51:43.385Z,21.60
2022-11-07T22:54:13.243Z,20.20
2022-11-07T22:56:41.611Z,19.10
2022-11-07T22:59:11.013Z,16.50
2022-11-07T23:01:41.612Z,16.70
2022-11-07T23:04:15.450Z,15.70
2022-11-07T23:06:44.799Z,26.20
2022-11-07T23:09:15.455Z,17.20
2022-11-07T23:11:46.261Z,25.40
2022-11-07T23:14:19.500Z,23.90
2022-11-07T23:16:51.176Z,20.90
2022-11-07T23:19:23.128Z,21.80
2022-11-07T23:21:53.753Z,21.00
2022-11-07T23:24:22.927Z,20.60
2022-11-07T23:26:51.651Z,18.70
2022-11-07T23:29:24.206Z,19.70
2022-11-07T23:31:53.352Z,19.10
2022-11-07T23:34:22.834Z,16.70
2022-11-07T23:36:52.328Z,19.20
2022-11-07T23:39:23.138Z,18.40
2022-11-07T23:41:51.998Z,21.80
2022-11-07T23:44:20.813Z,18.60
2022-11-07T23:47:07.632Z,21.00
2022-11-07T23:49:35.965Z,21.00
2022-11-07T23:52:05.202Z,19.80
2022-11-07T23:54:52.325Z,21.10
2022-11-07T23:57:20.669Z,21.00
